Time;durP1;ratioP1;P1;durP2;ratioP2;P2;SDS_P1;SDS_P2;PMS_P1;PMS_P2;Temp;Humidity;BMP_temperature;BMP_pressure;BME280_temperature;BME280_humidity;BME280_pressure;Samples;Min_cycle;Max_cycle;Signal;HPM_P1;HPM_P2
2022/01/05 00:00:49;;;;;;;11.97;6.73;;;;;;;10.26;71.21;98871.63;1437709;89;22283;-81
2022/01/05 00:03:15;;;;;;;10.63;6.80;;;;;;;10.29;71.28;98867.33;1434426;89;21526;-80
2022/01/05 00:05:41;;;;;;;10.43;6.93;;;;;;;10.27;71.18;98872.00;1453716;89;21433;-80
2022/01/05 00:08:08;;;;;;;10.27;6.60;;;;;;;10.27;71.33;98887.87;1438222;91;22426;-80
2022/01/05 00:10:34;;;;;;;11.37;7.10;;;;;;;10.25;71.39;98881.90;1435979;89;21634;-78
2022/01/05 00:13:00;;;;;;;10.17;7.60;;;;;;;10.24;71.31;98894.81;1438541;89;21414;-79
2022/01/05 00:15:27;;;;;;;10.70;6.90;;;;;;;10.24;71.58;98894.81;1441852;89;21464;-80
2022/01/05 00:17:53;;;;;;;9.80;6.07;;;;;;;10.24;71.72;98900.09;1435707;89;22272;-80
2022/01/05 00:20:19;;;;;;;14.23;7.47;;;;;;;10.26;71.48;98904.69;1442969;89;21562;-80
2022/01/05 00:22:45;;;;;;;8.77;6.30;;;;;;;10.25;71.58;98905.70;1434847;89;22228;-80
2022/01/05 00:25:12;;;;;;;15.57;7.50;;;;;;;10.24;71.70;98893.97;1433917;89;21596;-79
2022/01/05 00:27:38;;;;;;;12.27;6.73;;;;;;;10.21;71.76;98896.47;1441365;89;22351;-78
2022/01/05 00:30:06;;;;;;;9.43;6.67;;;;;;;10.20;71.90;98889.55;1437869;89;21518;-79
2022/01/05 00:32:33;;;;;;;12.77;6.30;;;;;;;10.23;71.80;98891.02;1439488;89;21480;-78
2022/01/05 00:34:59;;;;;;;10.27;6.17;;;;;;;10.24;71.69;98894.81;1439706;89;22506;-78
2022/01/05 00:37:26;;;;;;;10.30;7.13;;;;;;;10.26;71.61;98896.75;1432080;89;21481;-79
2022/01/05 00:39:52;;;;;;;11.43;7.30;;;;;;;10.25;71.83;98892.47;1431627;89;22531;-78
2022/01/05 00:42:18;;;;;;;10.10;6.43;;;;;;;10.24;71.91;98892.17;1424454;89;21370;-78
2022/01/05 00:44:44;;;;;;;12.03;6.90;;;;;;;10.25;71.61;98900.41;1420963;89;22109;-79
2022/01/05 00:47:11;;;;;;;11.07;6.50;;;;;;;10.27;71.83;98909.02;1410825;90;21414;-79
2022/01/05 00:49:37;;;;;;;13.00;7.23;;;;;;;10.28;71.67;98908.00;1429580;91;21420;-79
2022/01/05 00:52:04;;;;;;;10.83;6.33;;;;;;;10.28;71.71;98906.68;1403771;91;22346;-78
2022/01/05 00:54:30;;;;;;;11.80;6.90;;;;;;;10.28;71.60;98903.22;1414291;91;21599;-78
2022/01/05 00:56:56;;;;;;;11.17;7.50;;;;;;;10.25;71.83;98896.44;1422307;90;21444;-79
2022/01/05 00:59:24;;;;;;;11.13;6.47;;;;;;;10.26;71.82;98903.87;1418850;90;21495;-79
2022/01/05 01:01:51;;;;;;;10.47;7.33;;;;;;;10.24;71.82;98886.88;1415841;91;21465;-79
2022/01/05 01:04:17;;;;;;;10.43;6.93;;;;;;;10.25;71.69;98894.30;1410777;92;22433;-79
2022/01/05 01:06:43;;;;;;;9.90;6.90;;;;;;;10.25;71.69;98891.66;1431588;90;21441;-78
2022/01/05 01:09:10;;;;;;;11.77;6.93;;;;;;;10.23;71.85;98891.83;1414345;91;21488;-78
2022/01/05 01:11:36;;;;;;;15.47;6.20;;;;;;;10.22;71.98;98877.48;1430346;91;21418;-78
2022/01/05 01:14:03;;;;;;;14.07;6.87;;;;;;;10.22;71.91;98870.37;1410164;91;22588;-77
2022/01/05 01:16:29;;;;;;;8.73;6.30;;;;;;;10.23;71.86;98875.97;1402578;91;21363;-79
2022/01/05 01:18:56;;;;;;;10.97;6.50;;;;;;;10.23;71.61;98882.58;1396579;91;21472;-79
2022/01/05 01:21:22;;;;;;;13.10;7.60;;;;;;;10.23;71.27;98889.69;1404838;91;21648;-79
2022/01/05 01:23:55;;;;;;;11.87;6.50;;;;;;;10.25;71.35;98899.09;1401184;91;23448;-79
2022/01/05 01:26:26;;;;;;;13.60;7.33;;;;;;;10.21;71.25;98907.55;1397932;92;22425;-78
2022/01/05 01:28:53;;;;;;;11.25;7.05;;;;;;;10.23;71.88;98899.76;1397848;92;22685;-80
2022/01/05 01:31:20;;;;;;;10.27;6.37;;;;;;;10.20;71.63;98897.48;1407483;90;21503;-79
2022/01/05 01:33:47;;;;;;;11.80;6.93;;;;;;;10.16;71.59;98896.22;1413058;91;21473;-80
2022/01/05 01:36:13;;;;;;;10.67;7.57;;;;;;;10.13;71.70;98895.27;1420587;91;21464;-80
2022/01/05 01:38:41;;;;;;;13.27;8.17;;;;;;;10.11;71.81;98901.22;1408006;92;21682;-80
2022/01/05 01:41:09;;;;;;;9.00;6.20;;;;;;;10.08;71.84;98897.12;1400324;92;21473;-80
2022/01/05 01:43:36;;;;;;;12.30;6.87;;;;;;;10.07;72.07;98899.45;1395763;93;21481;-80
2022/01/05 01:46:04;;;;;;;12.37;7.33;;;;;;;10.06;72.17;98891.19;1400878;93;21533;-81
2022/01/05 01:48:32;;;;;;;11.87;7.63;;;;;;;10.04;72.18;98895.85;1404517;92;22374;-81
2022/01/05 01:50:58;;;;;;;9.43;7.03;;;;;;;10.01;72.39;98892.73;1393198;93;21431;-80
2022/01/05 01:53:24;;;;;;;10.30;7.17;;;;;;;9.98;72.57;98899.70;1404839;92;22417;-79
2022/01/05 01:55:51;;;;;;;15.13;7.27;;;;;;;9.98;72.67;98897.06;1400270;92;21552;-80
2022/01/05 01:58:21;;;;;;;10.17;7.07;;;;;;;9.97;72.57;98903.36;1398749;92;21526;-80
2022/01/05 02:00:47;;;;;;;9.83;7.20;;;;;;;9.97;72.66;98896.75;1377686;92;22359;-80
2022/01/05 02:03:48;;;;;;;11.73;7.00;;;;;;;9.92;72.81;98891.48;1394578;92;21451;-79
2022/01/05 02:06:14;;;;;;;10.43;6.90;;;;;;;9.91;72.90;98888.53;1423983;89;21487;-80
2022/01/05 02:08:41;;;;;;;10.07;7.07;;;;;;;9.88;72.98;98886.25;1440888;88;22671;-80
2022/01/05 02:11:12;;;;;;;12.33;7.33;;;;;;;9.88;73.03;98883.61;1456506;87;21971;-79
2022/01/05 02:13:41;;;;;;;13.33;8.17;;;;;;;9.88;73.04;98892.86;1463365;88;21371;-80
2022/01/05 02:16:09;;;;;;;11.27;8.73;;;;;;;9.85;73.24;98883.16;1473817;87;21446;-80
2022/01/05 02:21:12;;;;;;;11.63;6.63;;;;;;;9.81;73.48;98878.74;1461816;87;22426;-81
2022/01/05 02:23:38;;;;;;;11.75;7.12;;;;;;;9.82;73.53;98883.52;1467530;87;21450;-80
2022/01/05 02:26:07;;;;;;;14.07;7.93;;;;;;;9.80;73.50;98877.59;1466009;88;21504;-80
2022/01/05 02:28:34;;;;;;;12.10;8.23;;;;;;;9.79;73.65;98882.06;1471447;88;21445;-79
2022/01/05 02:31:01;;;;;;;13.30;7.87;;;;;;;9.77;73.85;98880.59;1455060;88;21548;-80
2022/01/05 02:33:28;;;;;;;12.90;7.83;;;;;;;9.75;73.86;98872.83;1435012;88;22353;-79
2022/01/05 02:35:54;;;;;;;11.40;6.50;;;;;;;9.75;74.00;98879.44;1450305;88;21489;-80
2022/01/05 02:38:23;;;;;;;13.93;7.67;;;;;;;9.76;73.81;98871.85;1484426;88;21409;-78
2022/01/05 02:40:52;;;;;;;9.27;6.50;;;;;;;9.77;73.84;98874.80;1467493;87;21445;-78
2022/01/05 02:43:19;;;;;;;8.23;5.77;;;;;;;9.76;73.94;98871.85;1463374;87;21430;-78
2022/01/05 02:45:45;;;;;;;7.90;5.80;;;;;;;9.75;74.11;98875.47;1454810;87;21571;-78
2022/01/05 02:48:11;;;;;;;15.93;8.40;;;;;;;9.76;73.94;98885.06;1448818;88;21423;-79
2022/01/05 02:50:38;;;;;;;19.20;8.93;;;;;;;9.77;73.87;98876.12;1461058;87;22317;-78
2022/01/05 02:53:04;;;;;;;14.80;7.83;;;;;;;9.77;73.78;98870.84;1466882;87;21394;-78
2022/01/05 02:55:30;;;;;;;12.73;7.40;;;;;;;9.77;73.88;98873.48;1448274;88;21644;-78
2022/01/05 02:57:56;;;;;;;11.13;7.83;;;;;;;9.76;73.93;98864.43;1464823;87;21556;-79
2022/01/05 03:00:23;;;;;;;8.20;5.40;;;;;;;9.76;73.85;98862.61;1464276;87;21387;-78
2022/01/05 03:02:49;;;;;;;11.43;8.27;;;;;;;9.77;73.78;98856.31;1462547;87;21474;-79
2022/01/05 03:05:15;;;;;;;12.53;7.27;;;;;;;9.78;73.58;98861.93;1464632;87;21429;-79
2022/01/05 03:07:42;;;;;;;13.13;7.37;;;;;;;9.79;73.55;98851.67;1464488;87;21371;-78
2022/01/05 03:10:11;;;;;;;12.03;7.83;;;;;;;9.77;73.68;98865.55;1466482;88;21587;-79
2022/01/05 03:12:40;;;;;;;12.57;7.17;;;;;;;9.77;73.85;98864.23;1480112;87;22279;-78
2022/01/05 03:15:09;;;;;;;13.87;8.40;;;;;;;9.78;73.77;98867.22;1470176;87;21386;-78
2022/01/05 03:17:35;;;;;;;9.47;6.80;;;;;;;9.79;73.55;98860.92;1469263;88;21446;-79
2022/01/05 03:20:02;;;;;;;11.73;7.63;;;;;;;9.80;73.47;98870.48;1452585;88;21467;-79
2022/01/05 03:22:28;;;;;;;14.07;7.10;;;;;;;9.77;73.53;98862.91;1467089;88;21439;-79
2022/01/05 03:24:54;;;;;;;11.70;7.03;;;;;;;9.80;73.52;98864.38;1482766;88;22628;-80
2022/01/05 03:27:20;;;;;;;13.53;8.07;;;;;;;9.80;73.39;98865.19;1447981;88;21452;-80
2022/01/05 03:29:46;;;;;;;10.90;6.70;;;;;;;9.80;73.26;98862.55;1469724;88;21478;-78
2022/01/05 03:32:13;;;;;;;13.13;7.40;;;;;;;9.80;73.00;98857.27;1455786;88;21475;-80
2022/01/05 03:34:40;;;;;;;11.37;7.73;;;;;;;9.80;73.10;98867.02;1462756;87;21474;-78
2022/01/05 03:37:07;;;;;;;10.33;6.67;;;;;;;9.78;73.19;98873.82;1435288;88;22572;-78
2022/01/05 03:39:34;;;;;;;12.00;7.43;;;;;;;9.78;73.23;98867.22;1454358;88;21467;-78
2022/01/05 03:42:00;;;;;;;8.77;6.13;;;;;;;9.79;72.93;98875.45;1449479;88;21341;-78
2022/01/05 03:44:27;;;;;;;11.73;7.43;;;;;;;9.80;72.77;98871.80;1451315;87;21423;-79
2022/01/05 03:46:54;;;;;;;12.33;8.30;;;;;;;9.82;72.69;98867.16;1463038;87;22466;-78
2022/01/05 03:49:20;;;;;;;10.87;7.27;;;;;;;9.80;72.70;98873.12;1446808;87;21409;-79
2022/01/05 03:51:46;;;;;;;13.23;7.47;;;;;;;9.76;72.58;98871.85;1467250;87;21446;-78
2022/01/05 03:54:12;;;;;;;9.17;6.97;;;;;;;9.78;72.92;98890.15;1460325;88;21530;-78
2022/01/05 03:56:39;;;;;;;12.83;7.63;;;;;;;9.78;72.67;98879.58;1467374;87;21379;-78
2022/01/05 03:59:05;;;;;;;14.43;7.20;;;;;;;9.78;72.79;98875.14;1472622;88;21468;-79
2022/01/05 04:01:31;;;;;;;14.27;8.50;;;;;;;9.76;72.69;98882.92;1462419;88;21379;-79
2022/01/05 04:03:57;;;;;;;11.30;7.60;;;;;;;9.71;72.69;98864.45;1478041;87;21416;-78
2022/01/05 04:06:23;;;;;;;15.33;8.53;;;;;;;9.71;72.74;98865.77;1427356;88;23416;-78
2022/01/05 04:08:49;;;;;;;17.80;8.77;;;;;;;9.70;72.85;98864.65;1464571;88;21416;-78
2022/01/05 04:11:15;;;;;;;14.17;8.57;;;;;;;9.69;72.77;98865.13;1453204;88;22751;-78
2022/01/05 04:13:42;;;;;;;16.90;9.50;;;;;;;9.70;72.80;98864.65;1437077;89;22124;-80
2022/01/05 04:16:08;;;;;;;12.70;8.20;;;;;;;9.66;72.82;98860.71;1440573;89;21444;-79
2022/01/05 04:18:34;;;;;;;14.73;8.30;;;;;;;9.64;72.96;98870.66;1431348;89;21510;-80
2022/01/05 04:21:00;;;;;;;15.17;9.93;;;;;;;9.61;72.97;98867.02;1433130;89;23451;-79
2022/01/05 04:23:26;;;;;;;36.73;20.13;;;;;;;9.62;73.25;98867.36;1438793;89;21486;-79
2022/01/05 04:25:53;;;;;;;29.07;17.40;;;;;;;9.61;73.23;98869.19;1422849;91;21682;-78
2022/01/05 04:28:19;;;;;;;24.23;13.93;;;;;;;9.59;73.16;98855.84;1443945;89;23424;-79
2022/01/05 04:30:45;;;;;;;14.07;10.00;;;;;;;9.56;73.18;98870.72;1431583;89;22577;-80
2022/01/05 04:33:12;;;;;;;11.13;8.33;;;;;;;9.55;73.22;98861.14;1429740;89;21464;-80
2022/01/05 04:35:38;;;;;;;11.00;6.53;;;;;;;9.54;73.42;98864.80;1439481;89;21591;-80
2022/01/05 04:38:04;;;;;;;10.87;7.57;;;;;;;9.54;73.34;98875.36;1441638;89;21375;-79
2022/01/05 04:40:31;;;;;;;11.07;7.13;;;;;;;9.53;73.32;98867.94;1436591;89;21627;-80
2022/01/05 04:42:58;;;;;;;11.40;7.57;;;;;;;9.53;73.14;98873.73;1438603;89;22316;-79
2022/01/05 04:45:25;;;;;;;9.83;6.33;;;;;;;9.51;73.07;98874.39;1454647;89;21444;-80
2022/01/05 04:47:51;;;;;;;14.00;6.40;;;;;;;9.47;73.08;98874.75;1443655;89;21642;-78
2022/01/05 04:50:18;;;;;;;13.20;7.67;;;;;;;9.48;73.28;98872.42;1438127;89;21414;-77
2022/01/05 04:52:44;;;;;;;12.27;7.67;;;;;;;9.48;73.35;98886.95;1440841;89;21492;-76
2022/01/05 04:55:11;;;;;;;13.30;8.87;;;;;;;9.51;73.23;98889.73;1436963;89;21695;-77
2022/01/05 04:57:38;;;;;;;14.90;8.60;;;;;;;9.49;73.01;98882.01;1443348;89;21598;-77
2022/01/05 05:00:06;;;;;;;15.90;9.33;;;;;;;9.49;73.01;98878.52;1437136;89;21464;-77
2022/01/05 05:02:32;;;;;;;15.27;8.87;;;;;;;9.48;73.14;98877.70;1445496;89;22157;-76
2022/01/05 05:04:59;;;;;;;16.40;8.20;;;;;;;9.48;73.48;98880.34;1425989;89;21442;-77
2022/01/05 05:07:25;;;;;;;12.67;7.73;;;;;;;9.46;73.16;98870.95;1423417;89;21629;-77
2022/01/05 05:09:51;;;;;;;17.93;9.07;;;;;;;9.47;73.15;98880.54;1431030;89;21509;-77
2022/01/05 05:12:18;;;;;;;12.30;8.37;;;;;;;9.47;73.03;98884.00;1432890;89;21531;-75
2022/01/05 05:14:44;;;;;;;13.40;7.43;;;;;;;9.44;72.88;98879.08;1425944;89;21518;-75
2022/01/05 05:17:11;;;;;;;11.13;7.03;;;;;;;9.45;72.90;98871.46;1430764;89;21370;-75
2022/01/05 05:19:37;;;;;;;11.63;7.60;;;;;;;9.46;73.01;98876.23;1440878;89;23399;-76
2022/01/05 05:22:04;;;;;;;11.83;7.53;;;;;;;9.44;72.84;98868.52;1429657;89;21420;-76
2022/01/05 05:24:30;;;;;;;9.13;6.93;;;;;;;9.46;72.83;98872.28;1438224;89;21607;-77
2022/01/05 05:26:56;;;;;;;9.90;7.07;;;;;;;9.43;72.63;98865.53;1426264;89;21913;-77
2022/01/05 05:29:22;;;;;;;15.40;8.23;;;;;;;9.41;72.75;98864.09;1416445;91;22465;-77
2022/01/05 05:31:48;;;;;;;13.77;8.10;;;;;;;9.38;72.78;98859.98;1415549;91;21423;-77
2022/01/05 05:34:15;;;;;;;12.20;7.33;;;;;;;9.38;72.84;98858.66;1417125;90;21487;-77
2022/01/05 05:36:41;;;;;;;13.10;7.10;;;;;;;9.38;73.23;98865.27;1441891;89;22060;-76
2022/01/05 05:39:07;;;;;;;10.50;6.93;;;;;;;9.38;72.81;98864.42;1427007;89;21533;-77
2022/01/05 05:41:33;;;;;;;10.13;7.00;;;;;;;9.37;73.00;98866.25;1425814;89;22372;-79
2022/01/05 05:43:59;;;;;;;11.13;7.40;;;;;;;9.34;72.95;98865.28;1444720;89;21538;-78
2022/01/05 05:46:25;;;;;;;11.37;7.60;;;;;;;9.33;72.99;98866.29;1435507;89;21429;-78
2022/01/05 05:48:52;;;;;;;11.67;6.43;;;;;;;9.30;73.12;98866.65;1443373;89;22368;-78
2022/01/05 05:51:18;;;;;;;8.43;6.13;;;;;;;9.30;73.21;98861.37;1434369;89;23641;-78
2022/01/05 05:53:44;;;;;;;10.77;7.17;;;;;;;9.31;73.01;98866.14;1426866;89;21463;-78
2022/01/05 05:56:10;;;;;;;9.03;6.77;;;;;;;9.32;72.96;98868.62;1434400;89;21540;-79
2022/01/05 05:58:36;;;;;;;12.03;7.53;;;;;;;9.32;73.07;98869.09;1442264;89;21596;-79
2022/01/05 06:01:03;;;;;;;10.37;6.10;;;;;;;9.33;72.92;98866.29;1433196;89;22387;-78
2022/01/05 06:03:29;;;;;;;11.53;6.10;;;;;;;9.32;72.79;98867.30;1420604;91;21435;-80
2022/01/05 06:05:55;;;;;;;12.37;5.93;;;;;;;9.35;72.29;98866.94;1425193;90;21710;-78
2022/01/05 06:08:21;;;;;;;12.00;8.57;;;;;;;9.39;72.22;98861.62;1438410;89;21450;-79
2022/01/05 06:10:47;;;;;;;10.57;6.53;;;;;;;9.42;71.93;98855.98;1436359;89;21549;-79
2022/01/05 06:13:14;;;;;;;12.17;7.23;;;;;;;9.44;71.88;98859.27;1435340;89;21421;-80
2022/01/05 06:15:40;;;;;;;12.27;7.27;;;;;;;9.44;71.70;98871.16;1428861;89;21421;-79
2022/01/05 06:18:06;;;;;;;12.43;7.77;;;;;;;9.45;71.81;98875.42;1419306;89;22927;-80
2022/01/05 06:20:33;;;;;;;13.80;7.73;;;;;;;9.47;71.65;98858.91;1442155;89;21385;-80
2022/01/05 06:22:59;;;;;;;17.03;6.90;;;;;;;9.49;71.81;98872.77;1432998;89;21567;-78
2022/01/05 06:25:25;;;;;;;9.67;6.83;;;;;;;9.51;71.82;98863.83;1414130;91;21458;-79
2022/01/05 06:27:51;;;;;;;12.57;7.53;;;;;;;9.49;71.83;98866.16;1409911;91;22279;-78
2022/01/05 06:30:18;;;;;;;11.80;7.10;;;;;;;9.52;71.91;98869.42;1408577;91;21479;-78
2022/01/05 06:32:46;;;;;;;9.80;6.17;;;;;;;9.54;71.97;98868.75;1416757;91;21597;-78
2022/01/05 06:35:14;;;;;;;9.77;6.60;;;;;;;9.55;71.87;98869.06;1408267;90;23036;-78
2022/01/05 06:37:41;;;;;;;9.50;6.10;;;;;;;9.56;71.81;98869.41;1419199;91;21400;-77
2022/01/05 06:40:09;;;;;;;10.70;6.90;;;;;;;9.57;71.94;98869.72;1405107;91;22587;-79
2022/01/05 06:42:35;;;;;;;10.13;6.40;;;;;;;9.57;71.84;98867.08;1434379;91;21466;-80
2022/01/05 06:45:02;;;;;;;9.30;7.00;;;;;;;9.55;72.04;98875.19;1448047;90;21320;-79
2022/01/05 06:47:28;;;;;;;13.93;6.37;;;;;;;9.56;72.14;98868.08;1459643;91;21377;-78
2022/01/05 06:49:54;;;;;;;12.93;7.13;;;;;;;9.56;71.46;98864.13;1396721;92;21408;-79
2022/01/05 06:52:20;;;;;;;11.17;6.97;;;;;;;9.57;71.81;98875.00;1420809;92;21471;-79
2022/01/05 06:54:46;;;;;;;12.50;7.83;;;;;;;9.56;71.84;98872.05;1412306;91;21530;-79
2022/01/05 06:57:13;;;;;;;15.83;7.67;;;;;;;9.56;71.86;98869.41;1411159;91;21464;-78
2022/01/05 06:59:39;;;;;;;12.23;8.20;;;;;;;9.54;71.84;98875.36;1423713;91;21566;-79
2022/01/05 07:02:05;;;;;;;12.63;7.43;;;;;;;9.55;72.25;98874.34;1409006;91;21430;-79
2022/01/05 07:04:32;;;;;;;11.80;7.30;;;;;;;9.55;72.25;98869.06;1423310;91;21489;-79
2022/01/05 07:06:59;;;;;;;10.90;6.97;;;;;;;9.54;72.11;98859.52;1419877;91;21452;-80
2022/01/05 07:09:25;;;;;;;19.97;9.40;;;;;;;9.54;72.10;98862.97;1410525;91;21466;-79
2022/01/05 07:11:51;;;;;;;14.50;7.27;;;;;;;9.54;72.09;98863.47;1424557;91;21659;-79
2022/01/05 07:14:18;;;;;;;14.77;8.13;;;;;;;9.51;72.21;98859.88;1412746;91;21436;-79
2022/01/05 07:16:44;;;;;;;12.87;7.97;;;;;;;9.51;72.19;98869.11;1415258;91;21622;-79
2022/01/05 07:19:10;;;;;;;10.73;7.03;;;;;;;9.52;72.16;98853.58;1417654;91;22543;-79
2022/01/05 07:21:36;;;;;;;10.80;7.00;;;;;;;9.54;72.09;98844.98;1421148;91;21511;-80
2022/01/05 07:24:04;;;;;;;11.20;7.27;;;;;;;9.51;72.09;98853.27;1417243;90;22230;-80
2022/01/05 07:26:31;;;;;;;13.50;7.63;;;;;;;9.49;72.30;98849.00;1417573;91;21466;-80
2022/01/05 07:28:58;;;;;;;12.03;7.83;;;;;;;9.47;72.39;98858.09;1421672;90;22432;-79
2022/01/05 07:31:24;;;;;;;12.07;6.83;;;;;;;9.46;72.29;98859.89;1416209;91;21533;-79
2022/01/05 07:33:50;;;;;;;12.20;7.70;;;;;;;9.48;72.38;98855.26;1417666;91;21404;-79
2022/01/05 07:36:17;;;;;;;16.93;8.30;;;;;;;9.49;72.19;98853.44;1415991;91;23293;-79
2022/01/05 07:38:43;;;;;;;15.80;7.47;;;;;;;9.50;71.96;98851.13;1418164;92;21607;-78
2022/01/05 07:41:10;;;;;;;13.70;8.10;;;;;;;9.49;71.90;98850.31;1411977;91;21466;-78
2022/01/05 07:43:36;;;;;;;12.50;7.90;;;;;;;9.49;72.14;98849.47;1415134;91;22375;-78
2022/01/05 07:46:03;;;;;;;11.63;7.27;;;;;;;9.49;72.22;98843.72;1419554;91;21400;-79
2022/01/05 07:48:29;;;;;;;8.30;5.27;;;;;;;9.49;72.31;98833.15;1411434;91;21592;-84
2022/01/05 07:50:56;;;;;;;8.57;6.50;;;;;;;9.47;71.82;98829.86;1419592;88;21406;-83
2022/01/05 07:53:22;;;;;;;10.83;7.40;;;;;;;9.53;72.48;98834.92;1467113;87;21487;-83
2022/01/05 07:55:48;;;;;;;13.77;8.00;;;;;;;9.54;72.35;98843.16;1460360;87;21574;-84
2022/01/05 07:58:14;;;;;;;12.63;8.23;;;;;;;9.51;72.47;98846.66;1467262;88;21433;-83
2022/01/05 08:00:41;;;;;;;11.07;7.47;;;;;;;9.51;72.33;98847.98;1467376;88;22705;-87
2022/01/05 08:03:07;;;;;;;12.13;7.47;;;;;;;9.51;72.42;98850.13;1459423;87;21472;-87
2022/01/05 08:05:33;;;;;;;14.83;8.23;;;;;;;9.53;72.60;98835.43;1458474;88;21480;-89
2022/01/05 08:08:00;;;;;;;12.97;9.17;;;;;;;9.51;72.62;98835.59;1468318;87;21450;-86
2022/01/05 08:10:26;;;;;;;14.57;8.77;;;;;;;9.49;72.54;98840.23;1460739;88;21376;-88
2022/01/05 08:12:52;;;;;;;12.30;7.67;;;;;;;9.49;73.07;98823.91;1464021;88;22338;-82
2022/01/05 08:15:18;;;;;;;13.03;7.33;;;;;;;9.46;72.46;98830.02;1465674;88;21656;-81
2022/01/05 08:17:45;;;;;;;11.73;7.37;;;;;;;9.45;72.86;98845.05;1458426;87;21434;-82
2022/01/05 08:20:12;;;;;;;14.07;7.97;;;;;;;9.44;72.96;98839.46;1463367;88;21530;-81
2022/01/05 08:22:42;;;;;;;12.30;6.60;;;;;;;9.40;72.60;98828.92;1465815;88;21442;-81
2022/01/05 08:25:12;;;;;;;12.58;8.15;;;;;;;9.41;72.53;98825.30;1449229;87;21635;-81
2022/01/05 08:27:46;;;;;;;14.07;7.80;;;;;;;9.38;72.48;98823.02;1432127;89;21442;-81
2022/01/05 08:30:09;;;;;;;11.20;7.27;;;;;;;9.35;72.83;98832.62;1455482;88;21686;-81
2022/01/05 08:32:36;;;;;;;11.97;7.83;;;;;;;9.36;72.91;98839.53;1475734;88;21502;-81
2022/01/05 08:35:02;;;;;;;34.40;8.43;;;;;;;9.35;72.88;98839.69;1473252;88;21582;-80
2022/01/05 08:37:28;;;;;;;10.47;6.27;;;;;;;9.34;72.76;98846.80;1464156;88;21449;-80
2022/01/05 08:39:55;;;;;;;11.63;7.53;;;;;;;9.33;72.85;98839.89;1460785;87;22529;-81
2022/01/05 08:42:21;;;;;;;10.90;6.87;;;;;;;9.33;72.92;98850.95;1475879;88;22595;-81
2022/01/05 08:44:47;;;;;;;11.17;6.87;;;;;;;9.32;73.13;98844.02;1461406;88;22427;-81
2022/01/05 08:47:14;;;;;;;12.20;6.97;;;;;;;9.33;72.99;98861.02;1466144;87;21600;-80
2022/01/05 08:49:40;;;;;;;13.87;8.30;;;;;;;9.33;72.88;98854.41;1477040;87;21448;-81
2022/01/05 08:52:07;;;;;;;11.50;6.67;;;;;;;9.33;72.95;98853.09;1474221;87;23389;-81
2022/01/05 08:54:33;;;;;;;15.80;7.97;;;;;;;9.34;72.89;98855.23;1466297;88;22587;-81
2022/01/05 08:56:59;;;;;;;10.10;6.70;;;;;;;9.31;73.05;98864.31;1432121;88;22008;-81
2022/01/05 08:59:25;;;;;;;10.87;7.17;;;;;;;9.33;73.12;98867.61;1461785;88;21495;-81
2022/01/05 09:01:51;;;;;;;13.30;6.80;;;;;;;9.34;72.95;98861.32;1464049;88;21470;-81
2022/01/05 09:04:18;;;;;;;12.17;7.80;;;;;;;9.37;72.70;98871.53;1469691;87;21428;-82
2022/01/05 09:06:44;;;;;;;12.13;6.87;;;;;;;9.38;72.57;98873.19;1451653;88;21479;-80
2022/01/05 09:09:10;;;;;;;14.07;8.43;;;;;;;9.37;72.69;98872.84;1465392;88;21546;-80
2022/01/05 09:11:37;;;;;;;13.37;7.57;;;;;;;9.35;72.66;98859.02;1459863;88;21412;-81
2022/01/05 09:14:03;;;;;;;9.90;5.80;;;;;;;9.39;72.87;98862.94;1466914;88;22492;-80
2022/01/05 09:16:30;;;;;;;11.47;7.10;;;;;;;9.38;72.57;98863.95;1467096;87;22530;-80
2022/01/05 09:18:56;;;;;;;11.57;7.83;;;;;;;9.41;72.72;98856.98;1454954;88;21525;-80
2022/01/05 09:21:22;;;;;;;14.87;6.83;;;;;;;9.43;72.45;98858.11;1462521;88;21450;-79
2022/01/05 09:23:50;;;;;;;16.40;8.97;;;;;;;9.44;72.40;98861.09;1455445;89;22479;-79
2022/01/05 09:26:16;;;;;;;11.97;7.57;;;;;;;9.45;72.37;98858.77;1469541;88;21539;-80
2022/01/05 09:28:44;;;;;;;15.70;7.27;;;;;;;9.46;72.69;98848.00;1461915;88;22354;-80
2022/01/05 09:31:12;;;;;;;13.27;7.33;;;;;;;9.46;72.49;98845.36;1457511;88;21532;-81
2022/01/05 09:33:39;;;;;;;13.73;8.43;;;;;;;9.47;72.55;98857.59;1471190;88;21576;-80
2022/01/05 09:36:13;;;;;;;12.27;6.40;;;;;;;9.45;72.46;98856.94;1467376;89;21504;-80
2022/01/05 09:43:56;;;;;;;12.13;7.40;;;;;;;9.48;72.49;98839.41;1475772;87;21450;-80
2022/01/05 09:47:20;;;;;;;10.17;6.00;;;;;;;9.51;72.08;98836.10;1452277;88;22523;-80
2022/01/05 09:50:01;;;;;;;12.37;8.03;;;;;;;9.52;72.10;98844.33;1455532;88;21494;-79
2022/01/05 09:52:27;;;;;;;11.00;6.75;;;;;;;9.51;72.02;98842.70;1456136;88;21598;-80
2022/01/05 09:54:54;;;;;;;11.37;6.93;;;;;;;9.52;72.06;98853.58;1457137;88;22427;-80
2022/01/05 09:57:21;;;;;;;11.40;7.70;;;;;;;9.51;72.04;98841.38;1405092;88;21399;-80
2022/01/05 09:59:48;;;;;;;10.87;6.47;;;;;;;9.55;72.15;98838.69;1446227;88;21355;-79
2022/01/05 10:02:28;;;;;;;12.53;7.90;;;;;;;9.53;72.05;98834.92;1465137;88;22288;-79
2022/01/05 10:04:54;;;;;;;11.63;7.63;;;;;;;9.54;72.14;98837.06;1481563;88;21317;-79
2022/01/05 10:07:21;;;;;;;11.00;7.40;;;;;;;9.56;72.23;98825.83;1522032;88;21251;-80
2022/01/05 10:09:49;;;;;;;11.87;7.67;;;;;;;9.58;72.17;98833.05;1469924;88;21522;-79
2022/01/05 10:12:15;;;;;;;12.23;7.53;;;;;;;9.61;72.26;98841.93;1498476;88;21489;-79
2022/01/05 10:14:45;;;;;;;12.10;8.73;;;;;;;9.62;72.02;98836.98;1454601;88;21325;-79
2022/01/05 10:17:18;;;;;;;9.67;7.23;;;;;;;9.61;71.79;98829.57;1454137;88;21302;-79
2022/01/05 10:19:45;;;;;;;11.83;7.97;;;;;;;9.63;72.01;98826.22;1464814;88;21375;-80
2022/01/05 10:22:32;;;;;;;11.90;6.13;;;;;;;9.65;72.24;98828.70;1498550;87;22183;-79
2022/01/05 10:25:00;;;;;;;15.93;8.00;;;;;;;9.64;71.84;98821.79;1410862;88;22530;-81
2022/01/05 10:27:27;;;;;;;13.30;8.33;;;;;;;9.66;72.05;98823.73;1478338;87;21340;-79
2022/01/05 10:30:07;;;;;;;11.67;7.57;;;;;;;9.65;71.92;98822.09;1458185;88;22288;-80
2022/01/05 10:32:35;;;;;;;15.47;8.83;;;;;;;9.65;71.88;98818.14;1497602;87;21611;-80
2022/01/05 10:35:17;;;;;;;14.17;7.50;;;;;;;9.69;72.08;98820.72;1476083;88;21427;-80
2022/01/05 10:38:04;;;;;;;13.37;7.37;;;;;;;9.73;72.10;98814.09;1469332;88;21612;-80
2022/01/05 10:40:34;;;;;;;12.73;7.53;;;;;;;9.76;71.66;98807.62;1471803;88;21628;-80
2022/01/05 10:43:11;;;;;;;12.07;8.17;;;;;;;9.73;71.72;98807.48;1468797;88;21561;-79
2022/01/05 10:45:51;;;;;;;13.97;9.33;;;;;;;9.73;71.72;98807.48;1467452;88;22325;-80
2022/01/05 10:48:25;;;;;;;10.38;6.75;;;;;;;9.75;71.91;98821.82;1465668;87;21436;-79
2022/01/05 10:51:03;;;;;;;12.80;7.33;;;;;;;9.76;72.05;98809.77;1461655;88;21659;-80
2022/01/05 10:53:30;;;;;;;12.35;7.12;;;;;;;9.78;72.15;98815.70;1458205;88;21561;-81
2022/01/05 10:55:56;;;;;;;14.57;8.73;;;;;;;9.82;72.22;98818.28;1459785;87;21495;-80
2022/01/05 10:58:22;;;;;;;13.90;7.75;;;;;;;9.84;71.96;98812.80;1471609;88;21516;-80
2022/01/05 11:00:53;;;;;;;12.57;8.23;;;;;;;9.85;72.15;98809.17;1470553;88;21575;-80
2022/01/05 11:03:23;;;;;;;;;;;;;;;9.87;72.30;98809.31;1469294;87;21412;-80
2022/01/05 11:06:13;;;;;;;11.17;6.73;;;;;;;9.91;72.35;98807.12;1469064;87;20327;-80
2022/01/05 11:08:57;;;;;;;13.03;7.75;;;;;;;9.99;72.41;98803.06;1469969;88;21443;-80
2022/01/05 11:11:44;;;;;;;12.33;7.77;;;;;;;10.12;72.03;98799.25;1437901;88;21629;-81
2022/01/05 11:14:34;;;;;;;16.07;8.37;;;;;;;10.30;71.60;98787.49;1413731;89;21538;-80
2022/01/05 11:17:04;;;;;;;12.23;7.50;;;;;;;10.44;71.41;98792.44;1413956;90;22375;-81
2022/01/05 11:19:36;;;;;;;12.60;8.17;;;;;;;10.52;70.91;98790.50;1434271;89;21470;-80
2022/01/05 11:22:14;;;;;;;11.67;7.57;;;;;;;10.57;70.83;98792.08;1430920;89;21974;-80
2022/01/05 11:24:45;;;;;;;13.57;7.70;;;;;;;10.62;71.10;98784.92;1443332;89;21514;-79
2022/01/05 11:27:16;;;;;;;13.08;7.08;;;;;;;10.65;70.40;98796.45;1439208;89;21618;-80
2022/01/05 11:29:43;;;;;;;12.13;7.72;;;;;;;10.65;70.40;98796.45;1430174;89;21459;-79
2022/01/05 11:32:14;;;;;;;11.13;7.30;;;;;;;10.65;70.58;98787.19;1421279;89;21325;-79
2022/01/05 11:34:40;;;;;;;12.00;6.45;;;;;;;10.64;70.74;98801.91;1379717;89;22278;-79
2022/01/05 11:37:10;;;;;;;11.73;7.17;;;;;;;10.64;70.78;98804.56;1419703;89;21533;-78
2022/01/05 11:39:44;;;;;;;13.50;8.05;;;;;;;10.64;71.24;98805.88;1448367;89;21509;-80
2022/01/05 11:42:16;;;;;;;12.03;7.13;;;;;;;10.65;71.19;98796.45;1417848;90;21505;-79